createdAt,value
2023-02-19T00:01:24.010Z,15.57
2023-02-19T00:03:55.256Z,15.37
2023-02-19T00:06:23.369Z,16.07
2023-02-19T00:08:50.816Z,17.63
2023-02-19T00:11:22.588Z,16.93
2023-02-19T00:13:51.776Z,16.67
2023-02-19T00:16:21.273Z,17.40
2023-02-19T00:18:48.725Z,17.57
2023-02-19T00:21:16.795Z,16.23
2023-02-19T00:23:44.271Z,17.07
2023-02-19T00:26:18.597Z,16.70
2023-02-19T00:28:50.538Z,16.80
2023-02-19T00:31:36.438Z,15.33
2023-02-19T00:34:05.604Z,16.50
2023-02-19T00:36:34.943Z,18.27
2023-02-19T00:39:02.522Z,17.10
2023-02-19T00:41:30.548Z,16.23
2023-02-19T00:43:58.870Z,16.60
2023-02-19T00:46:27.645Z,16.33
2023-02-19T00:48:55.388Z,14.97
2023-02-19T00:51:24.137Z,14.93
2023-02-19T00:53:51.784Z,12.53
2023-02-19T00:56:19.263Z,13.70
2023-02-19T00:58:47.456Z,13.13
2023-02-19T01:01:15.116Z,12.53
2023-02-19T01:03:42.610Z,9.00
2023-02-19T01:06:10.781Z,9.43
2023-02-19T01:08:38.441Z,10.53
2023-02-19T01:11:06.759Z,9.77
2023-02-19T01:13:34.142Z,10.33
2023-02-19T01:16:06.210Z,10.10
2023-02-19T01:18:33.899Z,11.20
2023-02-19T01:21:01.192Z,10.93
2023-02-19T01:23:28.528Z,11.73
2023-02-19T01:25:55.864Z,11.27
2023-02-19T01:28:23.306Z,13.47
2023-02-19T01:30:50.652Z,11.23
2023-02-19T01:33:17.940Z,10.57
2023-02-19T01:35:45.244Z,12.53
2023-02-19T01:38:12.834Z,11.93
2023-02-19T01:40:40.156Z,11.63
2023-02-19T01:43:12.330Z,12.73
2023-02-19T01:45:40.192Z,13.20
2023-02-19T01:48:36.996Z,13.10
2023-02-19T01:51:04.566Z,11.97
2023-02-19T01:53:34.297Z,10.17
2023-02-19T01:56:01.881Z,12.07
2023-02-19T01:58:32.478Z,12.30
2023-02-19T02:01:00.412Z,11.47
2023-02-19T02:03:28.364Z,13.07
2023-02-19T02:06:14.499Z,13.10
2023-02-19T02:09:01.035Z,12.70
2023-02-19T02:11:28.601Z,10.87
2023-02-19T02:13:56.144Z,13.67
2023-02-19T02:16:29.709Z,12.40
2023-02-19T02:19:00.649Z,12.53
2023-02-19T02:21:27.930Z,12.60
2023-02-19T02:23:55.216Z,12.10
2023-02-19T02:26:26.566Z,12.40
2023-02-19T02:29:00.035Z,12.70
2023-02-19T02:31:31.534Z,9.27
2023-02-19T02:34:02.412Z,12.40
2023-02-19T02:36:32.200Z,13.23
2023-02-19T02:39:01.708Z,12.97
2023-02-19T02:41:29.136Z,11.53
2023-02-19T02:43:56.441Z,9.77
2023-02-19T02:46:27.311Z,13.67
2023-02-19T02:48:58.997Z,11.07
2023-02-19T02:51:29.384Z,13.27
2023-02-19T02:54:29.125Z,14.73
2023-02-19T02:56:59.174Z,12.60
2023-02-19T02:59:34.269Z,13.20
2023-02-19T03:02:14.122Z,14.10
2023-02-19T03:05:19.122Z,13.07
2023-02-19T03:07:48.428Z,14.03
2023-02-19T03:10:26.242Z,12.67
2023-02-19T03:13:14.253Z,12.70
2023-02-19T03:16:06.629Z,13.13
2023-02-19T03:18:54.270Z,14.97
2023-02-19T03:21:23.014Z,14.37
2023-02-19T03:24:10.251Z,11.50
2023-02-19T03:26:39.737Z,16.20
2023-02-19T03:29:23.271Z,14.33
2023-02-19T03:31:58.314Z,15.73
2023-02-19T03:34:35.507Z,12.30
2023-02-19T03:37:07.394Z,17.40
2023-02-19T03:39:44.202Z,14.83
2023-02-19T03:42:22.652Z,15.87
2023-02-19T03:45:08.943Z,13.13
2023-02-19T03:47:49.888Z,11.20
2023-02-19T03:50:30.013Z,11.03
2023-02-19T03:53:18.313Z,16.03
2023-02-19T03:55:49.143Z,15.73
2023-02-19T03:58:16.606Z,17.47
2023-02-19T04:00:54.357Z,16.33
2023-02-19T04:03:38.907Z,18.13
2023-02-19T04:06:10.793Z,16.07
2023-02-19T04:08:39.479Z,14.80
2023-02-19T04:11:07.056Z,17.07
2023-02-19T04:13:42.562Z,14.53
2023-02-19T04:16:12.574Z,16.87
2023-02-19T04:18:41.851Z,19.30
2023-02-19T04:21:13.332Z,18.03
2023-02-19T04:23:43.550Z,17.00
2023-02-19T04:26:11.998Z,16.07
2023-02-19T04:28:39.881Z,16.30
2023-02-19T04:31:07.945Z,18.83
2023-02-19T04:33:35.480Z,17.30
2023-02-19T04:36:02.779Z,17.10
2023-02-19T04:38:30.050Z,14.83
2023-02-19T04:40:57.824Z,11.07
2023-02-19T04:43:25.181Z,14.10
2023-02-19T04:45:52.944Z,9.13
2023-02-19T04:48:20.250Z,13.73
2023-02-19T04:50:47.604Z,12.87
2023-02-19T04:53:14.873Z,13.33
2023-02-19T04:55:42.209Z,12.40
2023-02-19T04:58:09.531Z,12.23
2023-02-19T05:00:37.157Z,10.23
2023-02-19T05:03:04.435Z,8.90
2023-02-19T05:05:31.695Z,10.03
2023-02-19T05:07:59.040Z,9.83
2023-02-19T05:10:26.372Z,9.30
2023-02-19T05:12:57.776Z,9.37
2023-02-19T05:15:25.317Z,7.87
2023-02-19T05:17:52.607Z,9.20
2023-02-19T05:20:19.995Z,7.00
2023-02-19T05:22:47.245Z,8.27
2023-02-19T05:25:14.558Z,8.13
2023-02-19T05:27:41.899Z,4.17
2023-02-19T05:30:09.850Z,4.73
2023-02-19T05:32:37.549Z,5.23
2023-02-19T05:35:04.956Z,5.00
2023-02-19T05:37:32.228Z,3.50
2023-02-19T05:39:59.487Z,3.67
2023-02-19T05:42:26.824Z,1.90
2023-02-19T05:44:54.427Z,2.50
2023-02-19T05:47:21.786Z,2.60
2023-02-19T05:49:49.100Z,1.77
2023-02-19T05:52:16.398Z,1.80
2023-02-19T05:54:43.686Z,1.30
2023-02-19T05:57:11.163Z,1.20
2023-02-19T05:59:38.650Z,1.30
2023-02-19T06:02:05.994Z,1.20
2023-02-19T06:04:33.430Z,1.63
2023-02-19T06:07:00.772Z,1.57
2023-02-19T06:09:28.080Z,1.50
2023-02-19T06:11:55.360Z,1.87
2023-02-19T06:14:22.847Z,2.13
2023-02-19T06:16:50.137Z,1.93
2023-02-19T06:19:17.455Z,2.50
2023-02-19T06:21:46.742Z,2.90
2023-02-19T06:24:14.057Z,2.53
2023-02-19T06:26:41.393Z,3.03
2023-02-19T06:29:08.933Z,2.77
2023-02-19T06:31:36.536Z,3.13
2023-02-19T06:34:04.900Z,2.90
2023-02-19T06:36:32.264Z,3.20
2023-02-19T06:39:04.271Z,3.63
2023-02-19T06:41:31.929Z,8.00
2023-02-19T06:43:59.426Z,3.73
2023-02-19T06:46:34.169Z,3.30
2023-02-19T06:49:10.380Z,2.83
2023-02-19T06:51:40.081Z,3.20
2023-02-19T06:54:07.435Z,3.00
2023-02-19T06:56:37.494Z,2.77
2023-02-19T06:59:06.006Z,2.17
2023-02-19T07:01:34.012Z,1.30
2023-02-19T07:04:01.374Z,1.47
2023-02-19T07:06:29.148Z,2.00
2023-02-19T07:08:57.391Z,2.27
2023-02-19T07:11:24.980Z,1.90
2023-02-19T07:13:59.572Z,2.73
2023-02-19T07:16:27.421Z,2.23
2023-02-19T07:18:56.941Z,2.93
2023-02-19T07:21:24.656Z,2.77
2023-02-19T07:23:51.959Z,3.37
2023-02-19T07:26:20.091Z,3.27
2023-02-19T07:28:48.496Z,3.40
2023-02-19T07:31:16.731Z,3.13
2023-02-19T07:33:44.633Z,2.93
2023-02-19T07:36:12.541Z,2.57
2023-02-19T07:38:40.557Z,3.03
2023-02-19T07:41:08.664Z,3.20
2023-02-19T07:43:37.142Z,3.07
2023-02-19T07:46:12.024Z,3.67
2023-02-19T07:48:39.900Z,3.63
2023-02-19T07:51:12.114Z,4.23
2023-02-19T07:53:39.819Z,3.90
2023-02-19T07:56:08.046Z,3.57
2023-02-19T07:58:35.633Z,3.80
2023-02-19T08:01:16.988Z,3.50
2023-02-19T08:03:44.753Z,3.73
2023-02-19T08:06:12.700Z,3.50
2023-02-19T08:08:40.906Z,3.70
2023-02-19T08:11:27.149Z,3.60
2023-02-19T08:13:54.962Z,4.20
2023-02-19T08:16:36.771Z,4.63
2023-02-19T08:19:08.421Z,4.33
2023-02-19T08:21:36.203Z,4.87
2023-02-19T08:24:03.526Z,3.77
2023-02-19T08:26:30.930Z,2.50
2023-02-19T08:28:59.024Z,3.00
2023-02-19T08:31:27.183Z,1.90
2023-02-19T08:33:55.433Z,2.23
2023-02-19T08:36:26.502Z,1.87
2023-02-19T08:38:57.889Z,2.33
2023-02-19T08:41:25.352Z,2.93
2023-02-19T08:43:52.735Z,2.87
2023-02-19T08:46:20.484Z,2.83
2023-02-19T08:48:48.028Z,2.27
2023-02-19T08:51:15.631Z,2.27
2023-02-19T08:53:43.200Z,2.60
2023-02-19T08:56:12.136Z,3.33
2023-02-19T08:58:40.246Z,2.30
2023-02-19T09:01:12.577Z,2.90
2023-02-19T09:03:40.709Z,2.60
2023-02-19T09:06:08.702Z,2.60
2023-02-19T09:08:36.392Z,2.40
2023-02-19T09:11:04.868Z,2.87
2023-02-19T09:13:32.426Z,2.63
2023-02-19T09:15:59.787Z,2.80
2023-02-19T09:18:27.213Z,3.20
2023-02-19T09:20:54.686Z,2.50
2023-02-19T09:23:22.067Z,2.73
2023-02-19T09:25:49.443Z,2.77
2023-02-19T09:28:16.919Z,3.33
2023-02-19T09:30:44.291Z,2.80
2023-02-19T09:33:11.857Z,2.40
2023-02-19T09:35:40.895Z,3.10
2023-02-19T09:38:10.933Z,2.87
2023-02-19T09:40:39.111Z,2.57
2023-02-19T09:43:11.108Z,2.60
2023-02-19T09:45:38.400Z,2.63
2023-02-19T09:48:06.347Z,2.37
2023-02-19T09:50:36.729Z,2.30
2023-02-19T09:53:05.306Z,3.33
2023-02-19T09:55:36.112Z,2.80
2023-02-19T10:01:41.244Z,2.33
2023-02-19T10:04:11.755Z,2.87
2023-02-19T10:06:39.090Z,2.30
2023-02-19T10:09:17.896Z,2.30
2023-02-19T10:11:45.781Z,2.13
2023-02-19T10:14:16.027Z,3.23
2023-02-19T10:16:45.225Z,2.67
2023-02-19T10:19:13.459Z,2.47
2023-02-19T10:21:40.750Z,2.27
2023-02-19T10:24:08.970Z,2.93
2023-02-19T10:26:36.837Z,2.07
2023-02-19T10:29:05.032Z,2.57
2023-02-19T10:31:33.317Z,3.00
2023-02-19T10:34:02.040Z,3.37
2023-02-19T10:36:32.279Z,3.33
2023-02-19T10:39:01.144Z,3.60
2023-02-19T10:41:29.218Z,3.57
2023-02-19T10:44:01.964Z,3.73
2023-02-19T10:46:30.779Z,3.67
2023-02-19T10:48:58.193Z,3.20
2023-02-19T10:51:32.948Z,2.93
2023-02-19T10:54:19.362Z,2.83
2023-02-19T10:56:46.903Z,3.10
2023-02-19T10:59:27.829Z,3.30
2023-02-19T11:01:55.915Z,3.37
2023-02-19T11:04:23.426Z,4.43
2023-02-19T11:06:50.839Z,4.77
2023-02-19T11:09:35.553Z,3.10
2023-02-19T11:12:04.935Z,2.90
2023-02-19T11:14:32.906Z,2.77
2023-02-19T11:17:01.432Z,3.30
2023-02-19T11:19:34.891Z,3.30
2023-02-19T11:22:03.016Z,3.27
2023-02-19T11:24:37.660Z,3.53
2023-02-19T11:27:06.485Z,4.97
2023-02-19T11:29:35.402Z,4.37
2023-02-19T11:32:21.034Z,3.60
2023-02-19T11:34:48.843Z,3.57
2023-02-19T11:37:17.238Z,3.67
2023-02-19T11:39:48.956Z,3.80
2023-02-19T11:42:31.599Z,3.27
2023-02-19T11:45:11.465Z,3.80
2023-02-19T11:47:44.883Z,3.10
2023-02-19T11:50:15.084Z,3.33
2023-02-19T11:52:51.582Z,3.47
2023-02-19T11:55:31.100Z,3.37
2023-02-19T11:58:37.022Z,2.90
2023-02-19T12:01:10.704Z,2.63
2023-02-19T12:03:50.812Z,3.10
2023-02-19T12:06:29.849Z,2.37
2023-02-19T12:08:57.788Z,2.40
2023-02-19T12:11:36.107Z,2.40
2023-02-19T12:14:28.494Z,2.53
2023-02-19T12:17:01.933Z,2.50
2023-02-19T12:19:32.185Z,2.57
2023-02-19T12:22:05.643Z,2.97
2023-02-19T12:24:39.031Z,2.40
2023-02-19T12:27:16.690Z,3.00
2023-02-19T12:29:56.104Z,2.30
2023-02-19T12:32:31.380Z,2.23
2023-02-19T12:35:15.540Z,2.10
2023-02-19T12:37:52.111Z,2.40
2023-02-19T12:40:28.652Z,2.23
2023-02-19T12:43:28.363Z,2.20
2023-02-19T12:46:15.543Z,2.50
2023-02-19T12:48:49.024Z,2.63
2023-02-19T12:51:49.172Z,2.40
2023-02-19T12:54:25.888Z,1.83
2023-02-19T12:57:21.069Z,2.40
2023-02-19T12:59:48.384Z,2.23
2023-02-19T13:02:22.730Z,2.20
2023-02-19T13:04:59.297Z,2.27
2023-02-19T13:07:36.904Z,1.90
2023-02-19T13:10:17.954Z,2.20
2023-02-19T13:12:45.937Z,2.53
2023-02-19T13:15:32.009Z,2.43
2023-02-19T13:18:01.577Z,3.10
2023-02-19T13:20:33.420Z,2.47
2023-02-19T13:23:38.660Z,2.40
2023-02-19T13:26:05.920Z,2.17
2023-02-19T13:28:33.170Z,1.93
2023-02-19T13:31:12.061Z,2.17
2023-02-19T13:33:58.247Z,2.33
2023-02-19T13:36:30.146Z,2.50
2023-02-19T13:38:58.461Z,2.30
2023-02-19T13:41:30.776Z,1.80
2023-02-19T13:44:00.517Z,2.87
2023-02-19T13:46:34.511Z,3.40
2023-02-19T13:49:24.644Z,2.60
2023-02-19T13:51:59.172Z,2.20
2023-02-19T13:54:26.800Z,2.73
2023-02-19T13:57:14.804Z,2.87
2023-02-19T13:59:45.188Z,2.90
2023-02-19T14:02:14.399Z,2.53
2023-02-19T14:04:43.771Z,2.93
2023-02-19T14:07:11.232Z,2.97
2023-02-19T14:09:43.792Z,3.10
2023-02-19T14:12:11.817Z,4.60
2023-02-19T14:14:41.290Z,2.50
2023-02-19T14:17:18.029Z,3.73
2023-02-19T14:19:47.146Z,3.40
2023-02-19T14:22:33.514Z,4.73
2023-02-19T14:25:01.250Z,3.67
2023-02-19T14:27:28.796Z,3.73
2023-02-19T14:29:56.379Z,3.87
2023-02-19T14:32:23.799Z,3.50
2023-02-19T14:34:51.122Z,3.70
2023-02-19T14:37:20.166Z,4.20
2023-02-19T14:39:47.817Z,4.33
2023-02-19T14:42:17.697Z,5.00
2023-02-19T14:44:52.493Z,3.83
2023-02-19T14:47:22.068Z,5.10
2023-02-19T14:49:59.294Z,4.47
2023-02-19T14:52:29.040Z,5.53
2023-02-19T14:54:59.062Z,4.60
2023-02-19T14:57:29.137Z,4.33
2023-02-19T15:00:00.511Z,4.37
2023-02-19T15:02:29.146Z,5.23
2023-02-19T15:04:56.627Z,4.93
2023-02-19T15:07:25.475Z,5.00
2023-02-19T15:09:57.052Z,5.37
2023-02-19T15:12:25.825Z,7.23
2023-02-19T15:14:57.889Z,5.47
2023-02-19T15:17:30.014Z,8.57
2023-02-19T15:19:59.279Z,6.20
2023-02-19T15:22:28.282Z,6.30
2023-02-19T15:24:55.951Z,9.37
2023-02-19T15:27:24.274Z,8.90
2023-02-19T15:29:53.664Z,6.57
2023-02-19T15:32:28.429Z,6.90
2023-02-19T15:35:02.967Z,6.47
2023-02-19T15:37:31.779Z,6.47
2023-02-19T15:40:01.143Z,5.50
2023-02-19T15:42:34.674Z,8.53
2023-02-19T15:45:05.517Z,12.97
2023-02-19T15:47:35.909Z,5.53
2023-02-19T15:50:23.568Z,3.80
2023-02-19T15:52:59.999Z,4.00
2023-02-19T15:55:30.488Z,2.97
2023-02-19T15:58:09.942Z,3.70
2023-02-19T16:00:37.385Z,3.33
2023-02-19T16:03:05.533Z,3.23
2023-02-19T16:05:39.345Z,3.40
2023-02-19T16:08:08.277Z,3.93
2023-02-19T16:10:35.714Z,3.40
2023-02-19T16:13:04.215Z,3.63
2023-02-19T16:15:32.662Z,4.43
2023-02-19T16:18:00.242Z,3.57
2023-02-19T16:20:29.080Z,4.80
2023-02-19T16:23:04.629Z,5.00
2023-02-19T16:25:32.074Z,3.50
2023-02-19T16:27:59.575Z,3.80
2023-02-19T16:30:28.628Z,3.53
2023-02-19T16:33:15.034Z,4.23
2023-02-19T16:35:42.450Z,4.73
2023-02-19T16:38:16.897Z,4.23
2023-02-19T16:40:54.304Z,3.90
2023-02-19T16:43:26.394Z,4.13
2023-02-19T16:45:53.999Z,4.30
2023-02-19T16:48:22.099Z,4.30
2023-02-19T16:50:50.100Z,4.23
2023-02-19T16:53:21.541Z,4.50
2023-02-19T16:55:49.122Z,4.03
2023-02-19T16:58:16.562Z,4.93
2023-02-19T17:00:44.117Z,4.43
2023-02-19T17:03:13.050Z,4.87
2023-02-19T17:05:42.262Z,4.53
2023-02-19T17:08:31.820Z,4.83
2023-02-19T17:10:59.472Z,4.67
2023-02-19T17:13:27.528Z,4.77
2023-02-19T17:15:55.214Z,5.37
2023-02-19T17:18:22.842Z,5.43
2023-02-19T17:20:56.409Z,4.77
2023-02-19T17:23:24.601Z,5.23
2023-02-19T17:25:52.216Z,5.43
2023-02-19T17:28:19.925Z,4.47
2023-02-19T17:30:47.372Z,4.93
2023-02-19T17:33:15.210Z,4.00
2023-02-19T17:35:44.685Z,4.70
2023-02-19T17:38:15.667Z,6.97
2023-02-19T17:40:43.257Z,4.80
2023-02-19T17:43:10.676Z,5.10
2023-02-19T17:45:38.396Z,4.87
2023-02-19T17:48:06.925Z,4.97
2023-02-19T17:50:34.397Z,5.27
2023-02-19T17:53:02.003Z,5.70
2023-02-19T17:55:29.526Z,5.93
2023-02-19T17:57:57.077Z,4.87
2023-02-19T18:00:26.693Z,4.67
2023-02-19T18:02:57.106Z,4.80
2023-02-19T18:05:25.152Z,5.20
2023-02-19T18:07:53.287Z,7.03
2023-02-19T18:10:23.367Z,6.97
2023-02-19T18:12:51.452Z,6.67
2023-02-19T18:15:21.215Z,5.67
2023-02-19T18:17:48.624Z,6.27
2023-02-19T18:20:21.487Z,6.87
2023-02-19T18:22:49.631Z,12.33
2023-02-19T18:25:17.385Z,9.93
2023-02-19T18:27:45.082Z,15.80
2023-02-19T18:30:12.632Z,7.83
2023-02-19T18:32:40.454Z,6.00
2023-02-19T18:35:08.371Z,6.43
2023-02-19T18:37:36.046Z,7.53
2023-02-19T18:40:04.786Z,7.83
2023-02-19T18:42:32.262Z,8.47
2023-02-19T18:44:59.690Z,9.27
2023-02-19T18:47:27.369Z,7.77
2023-02-19T18:49:59.561Z,8.90
2023-02-19T18:52:27.530Z,8.60
2023-02-19T18:54:57.951Z,9.60
2023-02-19T18:57:26.893Z,8.93
2023-02-19T18:59:55.676Z,13.03
2023-02-19T19:02:23.781Z,13.87
2023-02-19T19:04:52.692Z,11.63
2023-02-19T19:07:20.770Z,13.10
2023-02-19T19:09:48.565Z,10.00
2023-02-19T19:12:16.466Z,12.70
2023-02-19T19:14:43.931Z,11.03
2023-02-19T19:17:11.452Z,10.20
2023-02-19T19:19:40.188Z,10.30
2023-02-19T19:22:08.018Z,10.00
2023-02-19T19:24:35.586Z,9.53
2023-02-19T19:27:03.038Z,11.73
2023-02-19T19:29:30.911Z,10.63
2023-02-19T19:31:58.743Z,9.87
2023-02-19T19:34:26.423Z,10.43
2023-02-19T19:36:53.846Z,10.40
2023-02-19T19:39:21.270Z,10.00
2023-02-19T19:41:53.637Z,10.03
2023-02-19T19:44:21.070Z,11.67
2023-02-19T19:46:48.647Z,9.13
2023-02-19T19:49:19.484Z,10.57
2023-02-19T19:51:46.999Z,10.10
2023-02-19T19:54:14.600Z,9.93
2023-02-19T19:56:43.150Z,10.93
2023-02-19T19:59:11.615Z,10.37
2023-02-19T20:01:39.044Z,9.47
2023-02-19T20:04:06.766Z,10.93
2023-02-19T20:06:34.169Z,20.47
2023-02-19T20:09:01.660Z,28.30
2023-02-19T20:11:29.006Z,22.03
2023-02-19T20:13:56.446Z,15.13
2023-02-19T20:16:24.748Z,12.83
2023-02-19T20:18:52.053Z,11.13
2023-02-19T20:21:19.851Z,10.40
2023-02-19T20:23:47.480Z,9.93
2023-02-19T20:26:21.462Z,14.20
2023-02-19T20:28:48.921Z,11.53
2023-02-19T20:31:16.538Z,11.80
2023-02-19T20:33:44.071Z,9.97
2023-02-19T20:36:11.964Z,11.13
2023-02-19T20:38:39.586Z,10.67
2023-02-19T20:41:07.242Z,9.50
2023-02-19T20:43:34.560Z,12.80
2023-02-19T20:46:02.387Z,10.83
2023-02-19T20:48:29.927Z,10.57
2023-02-19T20:50:59.528Z,10.37
2023-02-19T20:53:27.847Z,11.60
2023-02-19T20:55:56.105Z,14.23
2023-02-19T20:58:24.431Z,13.73
2023-02-19T21:00:53.570Z,11.10
2023-02-19T21:03:21.385Z,10.00
2023-02-19T21:05:48.873Z,10.43
2023-02-19T21:08:17.645Z,9.60
2023-02-19T21:10:45.911Z,10.87
2023-02-19T21:13:13.575Z,11.67
2023-02-19T21:15:41.152Z,10.77
2023-02-19T21:18:08.566Z,9.53
2023-02-19T21:20:36.187Z,10.53
2023-02-19T21:23:03.986Z,10.83
2023-02-19T21:25:33.119Z,10.70
2023-02-19T21:28:00.567Z,10.57
2023-02-19T21:30:28.797Z,10.27
2023-02-19T21:32:56.307Z,11.13
2023-02-19T21:35:23.672Z,12.37
2023-02-19T21:37:51.064Z,11.90
2023-02-19T21:40:19.975Z,11.00
2023-02-19T21:42:47.784Z,11.07
2023-02-19T21:45:15.270Z,11.13
2023-02-19T21:47:43.609Z,10.93
2023-02-19T21:50:16.389Z,11.17
2023-02-19T21:52:44.268Z,10.97
2023-02-19T21:55:11.572Z,11.70
2023-02-19T21:57:38.994Z,9.63
2023-02-19T22:00:07.404Z,9.80
2023-02-19T22:02:35.082Z,8.37
2023-02-19T22:05:02.648Z,9.30
2023-02-19T22:07:30.659Z,8.93
2023-02-19T22:09:58.125Z,7.23
2023-02-19T22:12:25.583Z,7.00
2023-02-19T22:14:52.992Z,5.97
2023-02-19T22:17:20.931Z,7.03
2023-02-19T22:19:48.329Z,7.37
2023-02-19T22:22:15.840Z,6.83
2023-02-19T22:24:43.273Z,7.10
2023-02-19T22:27:10.684Z,5.90
2023-02-19T22:29:38.099Z,6.37
2023-02-19T22:32:05.682Z,6.27
2023-02-19T22:34:33.192Z,6.20
2023-02-19T22:37:00.550Z,5.60
2023-02-19T22:39:28.027Z,5.80
2023-02-19T22:41:55.469Z,5.93
2023-02-19T22:44:22.911Z,5.70
2023-02-19T22:46:54.884Z,5.47
2023-02-19T22:49:22.952Z,6.30
2023-02-19T22:51:51.947Z,6.47
2023-02-19T22:54:21.958Z,6.57
2023-02-19T22:56:49.364Z,5.13
2023-02-19T22:59:17.024Z,5.47
2023-02-19T23:01:44.378Z,4.33
2023-02-19T23:04:11.783Z,4.63
2023-02-19T23:06:42.029Z,4.97
2023-02-19T23:09:11.197Z,4.53
2023-02-19T23:11:39.323Z,4.20
2023-02-19T23:14:07.260Z,4.83
2023-02-19T23:16:38.399Z,5.50
2023-02-19T23:19:07.299Z,5.03
2023-02-19T23:21:34.795Z,5.67
2023-02-19T23:24:02.307Z,5.20
2023-02-19T23:26:29.866Z,5.93
2023-02-19T23:28:57.330Z,5.90
2023-02-19T23:31:26.123Z,5.63
2023-02-19T23:33:54.060Z,7.60
2023-02-19T23:36:23.808Z,7.23
2023-02-19T23:38:51.454Z,8.47
2023-02-19T23:41:19.397Z,5.77
2023-02-19T23:43:47.361Z,6.97
2023-02-19T23:46:17.360Z,7.50
2023-02-19T23:48:46.008Z,6.93
2023-02-19T23:51:13.345Z,7.17
2023-02-19T23:53:40.788Z,6.53
2023-02-19T23:56:08.444Z,6.10
2023-02-19T23:58:35.807Z,6.57
